Data for 01/15/2015

Time Sea-Level Adjusted Pressure Absolute Pressure Temperature Relative Humidity Dew Point   
(mb) (inHg) (mb) (inHg) (C) (F) (%) (C) (F)
00:05 1025 30.27 854 25.22 -4 24.7 70 -8.7 16.3
00:10 1025 30.27 854 25.22 -3.3 26 68 -8.4 16.8
00:15 1025 30.27 854 25.22 -3.1 26.5 69 -8.1 17.5
00:20 1025 30.27 855 25.25 -3.1 26.5 69 -8 17.7
00:25 1025 30.27 855 25.25 -3.2 26.2 69 -8.1 17.5
00:30 1025 30.27 855 25.25 -2.8 27 65 -8.5 16.8
00:35 1025 30.27 855 25.25 -3.1 26.5 69 -8 17.7
00:40 1025 30.27 855 25.25 -3.5 25.8 73 -7.7 18.1
00:45 1025 30.27 855 25.25 -3.7 25.4 73 -7.9 17.8
00:50 1025 30.27 855 25.25 -3.9 24.9 73 -8.1 17.5
00:55 1025 30.27 855 25.25 -4.3 24.2 76 -8 17.6
01:00 1025 30.27 855 25.25 -4.3 24.2 75 -8.2 17.3
01:05 1025 30.27 855 25.25 -4.6 23.7 75 -8.4 16.9
01:10 1025 30.27 855 25.25 -4.8 23.4 74 -8.7 16.3
01:15 1025 30.27 854 25.22 -4.1 24.6 71 -8.7 16.3
01:20 1025 30.27 854 25.22 -4 24.8 71 -8.5 16.8
01:25 1025 30.27 854 25.22 -3.7 25.3 68 -8.7 16.3
01:30 1025 30.27 854 25.22 -3.3 26 67 -8.6 16.5
01:35 1025 30.27 854 25.22 -3.2 26.3 65 -8.8 16.2
01:40 1025 30.27 854 25.22 -3.2 26.2 66 -8.6 16.4
01:45 1025 30.27 854 25.22 -4 24.9 71 -8.5 16.8
01:50 1025 30.27 854 25.22 -4.9 23.2 74 -8.9 16
01:55 1025 30.27 854 25.22 -5.3 22.4 74 -9.2 15.5
02:00 1025 30.27 854 25.22 -5.2 22.6 75 -8.9 16
02:05 1025 30.27 854 25.22 -4.9 23.2 74 -8.9 16
02:10 1025 30.27 854 25.22 -4.8 23.4 73 -9 15.8
02:15 1025 30.27 854 25.22 -4.8 23.3 73 -8.9 16
02:20 1025 30.27 854 25.22 -4.8 23.4 73 -8.8 16.1
02:25 1025 30.27 854 25.22 -4.6 23.7 73 -8.7 16.4
02:30 1025 30.27 854 25.22 -4.5 24 72 -8.7 16.3
02:35 1025 30.27 854 25.22 -4.6 23.8 73 -8.8 16.2
02:40 1025 30.27 854 25.22 -4.4 24.2 71 -8.9 16
02:45 1025 30.27 854 25.22 -4.3 24.2 71 -8.9 16
02:50 1025 30.27 854 25.22 -4.3 24.3 70 -9 15.8
02:55 1025 30.27 854 25.22 -4.1 24.6 69 -8.9 16
03:00 1025 30.27 854 25.22 -4.2 24.5 70 -8.9 16
03:05 1025 30.27 854 25.22 -4 24.7 69 -8.9 16
03:10 1025 30.27 854 25.22 -4.2 24.5 71 -8.7 16.4
03:15 1025 30.27 854 25.22 -4.3 24.2 71 -8.7 16.3
03:20 1025 30.27 854 25.22 -4.5 23.9 72 -8.8 16.2
03:25 1025 30.27 854 25.22 -4.4 24.2 71 -8.8 16.2
03:30 1025 30.27 854 25.22 -4 24.8 71 -8.6 16.5
03:35 1025 30.27 855 25.25 -3.8 25.1 70 -8.5 16.6
03:40 1025 30.27 855 25.25 -3.7 25.4 69 -8.5 16.6
03:45 1025 30.27 855 25.25 -3.9 25 69 -8.8 16.2
03:50 1025 30.27 855 25.25 -4.8 23.3 74 -8.7 16.3
03:55 1026 30.3 855 25.25 -5.4 22.4 76 -9 15.8
04:00 1026 30.3 855 25.25 -5.6 21.9 78 -8.9 16
04:05 1025 30.27 855 25.25 -4.9 23.2 70 -9.5 15
04:10 1025 30.27 855 25.25 -4.6 23.7 70 -9.3 15.3
04:15 1025 30.27 855 25.25 -4.4 24 69 -9.2 15.4
04:20 1025 30.27 855 25.25 -4.5 23.9 70 -9.2 15.4
04:25 1025 30.27 855 25.25 -4.9 23.1 72 -9.2 15.5
04:30 1025 30.27 855 25.25 -4.7 23.5 72 -9.1 15.6
04:35 1025 30.27 854 25.22 -4.6 23.6 71 -9.1 15.6
04:40 1025 30.27 854 25.22 -4.9 23.1 73 -9 15.7
04:45 1025 30.27 854 25.22 -5.3 22.4 74 -9.2 15.4
04:50 1025 30.27 854 25.22 -5.4 22.2 73 -9.5 15
04:55 1025 30.27 854 25.22 -5.5 22.2 74 -9.4 15
05:00 1025 30.27 854 25.22 -5.3 22.4 73 -9.4 15.2
05:05 1025 30.27 854 25.22 -5.3 22.4 73 -9.4 15.1
05:10 1025 30.27 854 25.22 -5.3 22.4 73 -9.4 15.1
05:15 1025 30.27 854 25.22 -5.2 22.7 72 -9.4 15.1
05:20 1025 30.27 854 25.22 -5.1 22.9 71 -9.4 15
05:25 1025 30.27 854 25.22 -4.8 23.4 70 -9.4 15
05:30 1025 30.27 854 25.22 -4.4 24.1 68 -9.5 14.9
05:35 1025 30.27 854 25.22 -4.3 24.3 68 -9.3 15.2
05:40 1025 30.27 854 25.22 -4.6 23.7 70 -9.3 15.2
05:45 1025 30.27 854 25.22 -5.1 22.8 72 -9.4 15.1
05:50 1025 30.27 854 25.22 -5.5 22.2 73 -9.5 14.8
05:55 1025 30.27 854 25.22 -5.5 22.1 72 -9.7 14.5
06:00 1025 30.27 854 25.22 -4.9 23.1 70 -9.6 14.7
06:05 1024 30.24 854 25.22 -4.9 23.1 71 -9.4 15
06:10 1024 30.24 854 25.22 -5.3 22.4 71 -9.8 14.3
06:15 1024 30.24 854 25.22 -5 22.9 70 -9.8 14.4
06:20 1024 30.24 854 25.22 -5.2 22.6 70 -9.9 14.2
06:25 1024 30.24 854 25.22 -5.2 22.6 70 -10 14.1
06:30 1024 30.24 854 25.22 -5.2 22.6 70 -10 14
06:35 1024 30.24 854 25.22 -5.2 22.7 70 -9.9 14.3
06:40 1024 30.24 854 25.22 -5.5 22.2 71 -10 14.1
06:45 1024 30.24 854 25.22 -5.5 22.2 71 -10 14.1
06:50 1024 30.24 854 25.22 -5.2 22.7 70 -9.8 14.3
06:55 1024 30.24 854 25.22 -5.1 22.8 70 -9.7 14.6
07:00 1024 30.24 854 25.22 -4.9 23.1 70 -9.7 14.6
07:05 1024 30.24 854 25.22 -4.6 23.7 68 -9.6 14.7
07:10 1024 30.24 854 25.22 -4.6 23.7 68 -9.6 14.7
07:15 1024 30.24 854 25.22 -4.6 23.8 68 -9.7 14.6
07:20 1024 30.24 854 25.22 -4.7 23.6 69 -9.6 14.7
07:25 1024 30.24 854 25.22 -4.8 23.4 67 -9.9 14.2
07:30 1024 30.24 854 25.22 -4.7 23.6 67 -9.8 14.4
07:35 1024 30.24 854 25.22 -4.8 23.3 69 -9.6 14.6
07:40 1024 30.24 854 25.22 -5.2 22.7 71 -9.6 14.7
07:45 1024 30.24 854 25.22 -5.3 22.5 71 -9.7 14.5
07:50 1024 30.24 854 25.22 -5.4 22.3 71 -9.9 14.3
07:55 1024 30.24 854 25.22 -5.4 22.2 70 -10 14
08:00 1024 30.24 854 25.22 -5.1 22.8 71 -9.6 14.8
08:05 1024 30.24 854 25.22 -4.9 23.2 71 -9.4 15.1
08:10 1024 30.24 854 25.22 -4.9 23.2 74 -8.8 16.2
08:15 1024 30.24 854 25.22 -5.3 22.5 75 -8.9 15.9
08:20 1024 30.24 854 25.22 -5.5 22.1 77 -8.9 15.9
08:25 1024 30.24 854 25.22 -5.5 22.1 77 -9 15.8
08:30 1024 30.24 854 25.22 -6 21.2 77 -9.3 15.2
08:35 1024 30.24 854 25.22 -6.1 21 77 -9.5 14.9
08:40 1024 30.24 854 25.22 -6.4 20.5 81 -9.2 15.5
08:45 1024 30.24 853 25.19 -5.9 21.4 76 -9.4 15
08:50 1024 30.24 853 25.19 -6 21.3 75 -9.7 14.5
08:55 1024 30.24 853 25.19 -5.7 21.8 72 -10 14
09:00 1024 30.24 853 25.19 -5.6 21.9 71 -10.1 13.9
09:05 1024 30.24 853 25.19 -5.7 21.8 72 -9.9 14.2
09:10 1024 30.24 853 25.19 -5.3 22.4 71 -9.8 14.4
09:15 1024 30.24 853 25.19 -6.1 21 74 -9.9 14.1
09:20 1024 30.24 853 25.19 -6.5 20.4 75 -10.3 13.5
09:25 1024 30.24 853 25.19 -5.9 21.3 72 -10.2 13.7
09:30 1024 30.24 853 25.19 -5.6 21.9 70 -10.2 13.6
09:35 1024 30.24 853 25.19 -5.6 21.9 70 -10.3 13.4
09:40 1024 30.24 853 25.19 -5.6 22 69 -10.4 13.3
09:45 1024 30.24 853 25.19 -5.5 22 70 -10.2 13.6
09:50 1024 30.24 853 25.19 -5.5 22.1 71 -10 14
09:55 1024 30.24 853 25.19 -5.9 21.5 73 -10 14
10:00 1024 30.24 853 25.19 -5.7 21.7 72 -10.1 13.9
10:05 1024 30.24 853 25.19 -5 22.9 69 -10 14.1
10:10 1024 30.24 853 25.19 -4.6 23.7 67 -9.8 14.4
10:15 1024 30.24 853 25.19 -4.4 24.1 67 -9.6 14.7
10:20 1024 30.24 853 25.19 -3.8 25.2 65 -9.5 14.9
10:25 1024 30.24 853 25.19 -3.3 26.1 65 -9 15.8
10:30 1024 30.24 853 25.19 -3.6 25.5 66 -9 15.8
10:35 1024 30.24 853 25.19 -3.9 25 66 -9.3 15.3
10:40 1024 30.24 853 25.19 -3.6 25.4 65 -9.3 15.2
10:45 1024 30.24 853 25.19 -3.4 26 63 -9.4 15.1
10:50 1024 30.24 853 25.19 -3.5 25.6 62 -9.8 14.3
10:55 1024 30.24 853 25.19 -3.8 25.1 63 -9.9 14.2
11:00 1024 30.24 853 25.19 -3.8 25.2 62 -10 14
11:05 1023 30.21 853 25.19 -3.5 25.7 61 -10 14.1
11:10 1023 30.21 853 25.19 -3.2 26.2 60 -9.9 14.2
11:15 1023 30.21 853 25.19 -2.7 27.2 57 -10 14.1
11:20 1023 30.21 853 25.19 -1.8 28.8 54 -9.9 14.3
11:25 1023 30.21 853 25.19 -1.1 30 53 -9.6 14.7
11:30 1023 30.21 853 25.19 -0.7 30.8 51 -9.6 14.8
11:35 1023 30.21 853 25.19 -0.1 31.8 50 -9.4 15
11:40 1023 30.21 853 25.19 -0 32 53 -8.5 16.6
11:45 1023 30.21 852 25.16 -0.3 31.4 57 -7.8 18
11:50 1023 30.21 852 25.16 -0.3 31.4 57 -7.9 17.8
11:55 1023 30.21 852 25.16 0.1 32.2 55 -7.8 17.9
12:00 1023 30.21 852 25.16 0.9 33.7 53 -7.6 18.3
12:05 1023 30.21 852 25.16 1.2 34.2 50 -8.2 17.2
12:10 1023 30.21 852 25.16 1.7 35.1 48 -8.2 17.2
12:15 1023 30.21 852 25.16 2 35.6 47 -8.2 17.2
12:20 1023 30.21 852 25.16 1.9 35.5 48 -8 17.6
12:25 1023 30.21 852 25.16 1.9 35.5 47 -8.3 17
12:30 1023 30.21 852 25.16 1.6 35 50 -7.6 18.3
12:35 1023 30.21 852 25.16 0.8 33.5 50 -8.5 16.7
12:40 1023 30.21 852 25.16 0.8 33.4 50 -8.4 16.9
12:45 1023 30.21 852 25.16 1 33.8 50 -8.3 17.1
12:50 1022 30.18 852 25.16 0.8 33.4 51 -8.3 17.1
12:55 1022 30.18 852 25.16 0.5 33 52 -8.1 17.3
13:00 1022 30.18 852 25.16 -0.5 31 56 -8.3 17.1
13:05 1022 30.18 851 25.13 -0.6 31 55 -8.4 16.9
13:10 1022 30.18 851 25.13 -0.5 31.1 55 -8.3 17
13:15 1022 30.18 851 25.13 -0.9 30.5 56 -8.7 16.4
13:20 1022 30.18 851 25.13 -0.5 31.1 55 -8.6 16.5
13:25 1022 30.18 851 25.13 0.2 32.3 52 -8.6 16.6
13:30 1022 30.18 851 25.13 1 33.7 50 -8.2 17.2
13:35 1021 30.15 851 25.13 1 33.8 50 -8.3 17.1
13:40 1021 30.15 850 25.1 1.5 34.6 47 -8.8 16.2
13:45 1021 30.15 850 25.1 1.5 34.8 46 -8.8 16.1
13:50 1021 30.15 850 25.1 1.9 35.4 45 -8.9 16
13:55 1021 30.15 850 25.1 2.1 35.7 45 -8.8 16.2
14:00 1021 30.15 850 25.1 2 35.6 45 -8.6 16.5
14:05 1021 30.15 850 25.1 2.1 35.7 44 -9.1 15.7
14:10 1020 30.12 850 25.1 2.7 36.8 43 -8.7 16.3
14:15 1020 30.12 849 25.07 2.5 36.5 46 -8 17.5
14:20 1020 30.12 849 25.07 3.4 38.1 40 -9 15.8
14:25 1020 30.12 849 25.07 4.7 40.4 38 -8.5 16.7
14:30 1020 30.12 849 25.07 4.7 40.4 39 -8 17.7
14:35 1020 30.12 849 25.07 4.8 40.6 38 -8.4 16.8
14:40 1020 30.12 849 25.07 4.8 40.6 37 -8.6 16.4
14:45 1020 30.12 849 25.07 4.3 39.7 40 -8.1 17.4
14:50 1020 30.12 849 25.07 4.2 39.5 40 -8.2 17.3
14:55 1020 30.12 849 25.07 4.8 40.7 39 -8.1 17.3
15:00 1020 30.12 849 25.07 5.2 41.3 39 -7.5 18.4
15:05 1020 30.12 849 25.07 5.2 41.4 39 -7.6 18.4
15:10 1019 30.09 849 25.07 5.1 41.2 40 -7.3 18.8
15:15 1020 30.12 849 25.07 5 40.9 41 -7.1 19.3
15:20 1020 30.12 849 25.07 4.6 40.3 42 -7.3 18.8
15:25 1020 30.12 849 25.07 3.8 38.8 44 -7.3 18.8
15:30 1020 30.12 849 25.07 3.3 37.9 42 -8.4 16.9
15:35 1020 30.12 849 25.07 3.2 37.8 44 -7.9 17.8
15:40 1020 30.12 849 25.07 2.6 36.7 45 -8.2 17.3
15:45 1020 30.12 849 25.07 2.9 37.2 43 -8.5 16.6
15:50 1020 30.12 849 25.07 3.2 37.8 41 -8.8 16.2
15:55 1020 30.12 850 25.1 3.3 37.9 41 -8.8 16.2
16:00 1020 30.12 850 25.1 3.2 37.8 42 -8.5 16.8
16:05 1020 30.12 850 25.1 3.1 37.6 44 -8 17.5
16:10 1020 30.12 850 25.1 1.4 34.5 52 -7.5 18.5
16:15 1021 30.15 850 25.1 0.6 33.1 51 -8.3 17
16:20 1021 30.15 850 25.1 0.8 33.4 50 -8.6 16.5
16:25 1021 30.15 850 25.1 1.2 34.1 50 -8 17.5
16:30 1021 30.15 850 25.1 1 33.8 52 -7.9 17.8
16:35 1021 30.15 850 25.1 0.5 32.8 51 -8.6 16.4
16:40 1021 30.15 850 25.1 0.6 33.1 51 -8.5 16.6
16:45 1021 30.15 850 25.1 0.4 32.7 50 -8.7 16.3
16:50 1021 30.15 850 25.1 0.8 33.5 45 -9.8 14.4
16:55 1021 30.15 850 25.1 1.3 34.4 46 -9.2 15.5
17:00 1021 30.15 850 25.1 1.6 34.9 44 -9.5 14.9
17:05 1021 30.15 850 25.1 1.7 35.1 44 -9.3 15.3
17:10 1021 30.15 850 25.1 1.6 34.8 47 -8.6 16.5
17:15 1021 30.15 850 25.1 1.1 34 49 -8.4 16.9
17:20 1021 30.15 850 25.1 0.9 33.6 51 -8.2 17.2
17:25 1021 30.15 850 25.1 0.7 33.2 53 -7.9 17.8
17:30 1021 30.15 850 25.1 0.6 33.1 52 -8.2 17.3
17:35 1021 30.15 850 25.1 0.9 33.6 51 -8.1 17.4
17:40 1021 30.15 850 25.1 1 33.7 52 -7.8 17.9
17:45 1021 30.15 850 25.1 0.7 33.2 53 -7.9 17.9
17:50 1021 30.15 850 25.1 0.4 32.7 55 -7.6 18.2
17:55 1020 30.12 850 25.1 0 32.1 56 -7.7 18.1
18:00 1020 30.12 850 25.1 0 32.1 57 -7.6 18.3
18:05 1020 30.12 850 25.1 -0 31.9 57 -7.6 18.2
18:10 1020 30.12 850 25.1 -0.1 31.9 56 -7.7 18.1
18:15 1020 30.12 850 25.1 -0.2 31.7 57 -7.7 18.2
18:20 1020 30.12 850 25.1 -0.4 31.2 58 -7.6 18.3
18:25 1020 30.12 850 25.1 -1 30.2 59 -8 17.7
18:30 1020 30.12 849 25.07 -1.3 29.7 56 -9.1 15.7
18:35 1020 30.12 849 25.07 -1.3 29.6 56 -9 15.8
18:40 1020 30.12 849 25.07 -1.7 29 57 -9.1 15.6
18:45 1020 30.12 849 25.07 -2 28.5 56 -9.5 14.9
18:50 1020 30.12 849 25.07 -1.5 29.3 52 -10.2 13.6
18:55 1020 30.12 849 25.07 -0.8 30.6 51 -9.7 14.5
19:00 1020 30.12 849 25.07 -0.6 30.9 51 -9.4 15
19:05 1020 30.12 849 25.07 -0.9 30.4 52 -9.7 14.6
19:10 1020 30.12 849 25.07 -1.1 30 52 -9.7 14.5
19:15 1020 30.12 849 25.07 -1.2 29.8 54 -9.4 15.1
19:20 1020 30.12 849 25.07 -1.5 29.3 56 -9.3 15.3
19:25 1020 30.12 849 25.07 -1.8 28.7 57 -9.2 15.4
19:30 1020 30.12 849 25.07 -1.9 28.5 57 -9.4 15.1
19:35 1020 30.12 849 25.07 -1.8 28.8 56 -9.4 15
19:40 1019 30.09 849 25.07 -1.4 29.5 54 -9.5 14.8
19:45 1019 30.09 849 25.07 -0.8 30.5 52 -9.5 14.9
19:50 1019 30.09 848 25.04 -0.8 30.5 53 -9.2 15.4
19:55 1019 30.09 849 25.07 -1.2 29.8 56 -8.9 15.9
20:00 1019 30.09 849 25.07 -1.7 28.9 58 -9 15.7
20:05 1019 30.09 849 25.07 -1.4 29.5 54 -9.5 15
20:10 1019 30.09 849 25.07 -1 30.2 54 -9.3 15.3
20:15 1019 30.09 849 25.07 -1.2 29.8 55 -9.2 15.4
20:20 1020 30.12 849 25.07 -1.7 28.9 56 -9.5 14.9
20:25 1020 30.12 849 25.07 -1.7 28.9 55 -9.7 14.6
20:30 1020 30.12 849 25.07 -1.7 29 54 -9.8 14.4
20:35 1020 30.12 849 25.07 -2 28.3 61 -8.7 16.4
20:40 1020 30.12 849 25.07 -2.7 27.2 60 -9.5 15
20:45 1020 30.12 849 25.07 -2.4 27.7 57 -9.8 14.4
20:50 1020 30.12 849 25.07 -2.2 28.1 58 -9.4 15
20:55 1020 30.12 849 25.07 -2.5 27.5 59 -9.5 15
21:00 1020 30.12 849 25.07 -2.9 26.7 61 -9.5 14.8
21:05 1020 30.12 849 25.07 -3.2 26.3 62 -9.5 14.9
21:10 1020 30.12 849 25.07 -3 26.6 61 -9.6 14.8
21:15 1020 30.12 849 25.07 -3.1 26.5 60 -9.7 14.6
21:20 1019 30.09 849 25.07 -3 26.7 60 -9.7 14.5
21:25 1019 30.09 849 25.07 -3.1 26.4 58 -10.2 13.7
21:30 1019 30.09 849 25.07 -3.5 25.6 59 -10.4 13.3
21:35 1019 30.09 849 25.07 -2.9 26.8 56 -10.6 12.9
21:40 1019 30.09 848 25.04 -2.5 27.5 54 -10.6 13
21:45 1019 30.09 849 25.07 -1.9 28.7 51 -10.6 12.9
21:50 1019 30.09 849 25.07 -0.7 30.7 46 -10.9 12.4
21:55 1019 30.09 849 25.07 -0 32 46 -10.4 13.3
22:00 1019 30.09 849 25.07 -0.8 30.6 49 -10.3 13.5
22:05 1019 30.09 849 25.07 -0.9 30.3 49 -10.3 13.4
22:10 1019 30.09 848 25.04 -0.7 30.7 48 -10.5 13.1
22:15 1019 30.09 848 25.04 -0.4 31.3 49 -9.8 14.4
22:20 1019 30.09 848 25.04 -1.4 29.4 52 -10 14
22:25 1019 30.09 848 25.04 -1.5 29.3 49 -10.8 12.6
22:30 1019 30.09 848 25.04 -0.9 30.3 48 -10.5 13.1
22:35 1019 30.09 848 25.04 -1.5 29.2 51 -10.4 13.4
22:40 1019 30.09 848 25.04 -2.2 28 55 -10.2 13.7
22:45 1019 30.09 848 25.04 -3.1 26.5 56 -10.6 12.9
22:50 1019 30.09 848 25.04 -2.7 27.1 53 -10.9 12.4
22:55 1019 30.09 848 25.04 -1.7 29 49 -11 12.2
23:00 1019 30.09 848 25.04 -0.8 30.6 45 -11.3 11.7
23:05 1019 30.09 848 25.04 0 32 45 -10.7 12.8
23:10 1019 30.09 848 25.04 0.5 32.8 43 -10.9 12.5
23:15 1019 30.09 848 25.04 0.6 33 44 -10.4 13.4
23:20 1019 30.09 848 25.04 -0.7 30.8 48 -10.4 13.3
23:25 1019 30.09 848 25.04 -1.4 29.5 50 -10.5 13.1
23:30 1019 30.09 848 25.04 -1.2 29.9 48 -10.8 12.5
23:35 1019 30.09 848 25.04 -1.2 29.8 49 -10.6 13
23:40 1019 30.09 848 25.04 -1.4 29.5 50 -10.6 13
23:45 1019 30.09 848 25.04 -1.3 29.6 48 -10.9 12.4
23:50 1019 30.09 848 25.04 -0.6 30.8 45 -11.3 11.7
23:55 1019 30.09 848 25.04 -0.4 31.3 43 -11.5 11.3
24:00 1019 30.09 848 25.04 -0.2 31.7 43 -11.2 11.8